< < Back
Terminal Aerodrome Forecast


Current Version              Previous Versions:   1  2  3  4  5  6  7  8  9  

Terminal Aerodrome Forecast

313
FTUS44 KMRX 301123
TAFCHA
TAF
KCHA 301123Z 3012/3112 35013G22KT P6SM BKN035
     FM301400 35012G20KT P6SM SCT035 BKN120
     FM301800 35012KT P6SM FEW050
     FM310000 36005KT P6SM SKC
     FM310800 03004KT P6SM BKN250=

Latest METAR

803
SAUS80 KWBC 310100 RRA
MTRCHA
METAR KCHA 310053Z 34006KT 10SM SCT250 03/M07 A3039 RMK AO2 SLP295
T00331067


USA.gov is the U.S. government's official web portal to all federal, state and local government web resources and services.